sensor_id;sensor_type;location;lat;lon;timestamp;temperature;humidity
23081;DHT22;72373;50.562;8.498;2024-03-23T00:54:19;7.50;99.90
23081;DHT22;72373;50.562;8.498;2024-03-23T00:56:44;7.50;99.90
23081;DHT22;72373;50.562;8.498;2024-03-23T00:59:10;7.60;99.90
23081;DHT22;72373;50.562;8.498;2024-03-23T01:01:35;7.50;99.90
23081;DHT22;72373;50.562;8.498;2024-03-23T01:04:01;7.60;99.90
23081;DHT22;72373;50.562;8.498;2024-03-23T01:06:27;7.60;99.90
23081;DHT22;72373;50.562;8.498;2024-03-23T01:08:53;7.60;99.90
23081;DHT22;72373;50.562;8.498;2024-03-23T01:11:19;7.60;99.90
23081;DHT22;72373;50.562;8.498;2024-03-23T01:13:44;7.60;99.90
23081;DHT22;72373;50.562;8.498;2024-03-23T01:16:10;7.60;99.90
23081;DHT22;72373;50.562;8.498;2024-03-23T01:18:35;7.50;99.90
23081;DHT22;72373;50.562;8.498;2024-03-23T01:21:01;7.60;99.90
23081;DHT22;72373;50.562;8.498;2024-03-23T01:23:26;7.60;99.90
23081;DHT22;72373;50.562;8.498;2024-03-23T01:25:55;7.70;99.90
23081;DHT22;72373;50.562;8.498;2024-03-23T01:28:21;7.70;99.90
23081;DHT22;72373;50.562;8.498;2024-03-23T01:30:47;7.70;99.90
23081;DHT22;72373;50.562;8.498;2024-03-23T01:33:13;7.70;99.90
23081;DHT22;72373;50.562;8.498;2024-03-23T01:35:38;7.80;99.90
23081;DHT22;72373;50.562;8.498;2024-03-23T01:38:04;7.80;99.90
23081;DHT22;72373;50.562;8.498;2024-03-23T01:40:30;7.80;99.90
23081;DHT22;72373;50.562;8.498;2024-03-23T01:43:05;7.80;99.90
23081;DHT22;72373;50.562;8.498;2024-03-23T01:45:31;7.70;99.90
23081;DHT22;72373;50.562;8.498;2024-03-23T01:47:57;7.70;99.90
23081;DHT22;72373;50.562;8.498;2024-03-23T01:50:23;7.70;99.90
23081;DHT22;72373;50.562;8.498;2024-03-23T01:52:49;7.70;99.90
23081;DHT22;72373;50.562;8.498;2024-03-23T01:55:15;7.60;99.90
23081;DHT22;72373;50.562;8.498;2024-03-23T01:57:41;7.70;99.90
23081;DHT22;72373;50.562;8.498;2024-03-23T02:00:07;7.70;99.90
23081;DHT22;72373;50.562;8.498;2024-03-23T02:02:34;7.70;99.90
23081;DHT22;72373;50.562;8.498;2024-03-23T02:05:00;7.80;99.90
23081;DHT22;72373;50.562;8.498;2024-03-23T02:07:26;7.80;99.90
23081;DHT22;72373;50.562;8.498;2024-03-23T02:09:52;7.80;99.90
23081;DHT22;72373;50.562;8.498;2024-03-23T02:12:18;7.80;99.90
23081;DHT22;72373;50.562;8.498;2024-03-23T02:14:44;7.70;99.90
23081;DHT22;72373;50.562;8.498;2024-03-23T02:17:10;7.80;99.90
23081;DHT22;72373;50.562;8.498;2024-03-23T02:19:35;7.80;99.90
23081;DHT22;72373;50.562;8.498;2024-03-23T02:22:01;7.80;99.90
23081;DHT22;72373;50.562;8.498;2024-03-23T02:24:26;7.70;99.90
23081;DHT22;72373;50.562;8.498;2024-03-23T02:26:54;7.70;99.90
23081;DHT22;72373;50.562;8.498;2024-03-23T02:29:20;7.70;99.90
23081;DHT22;72373;50.562;8.498;2024-03-23T02:31:46;7.70;99.90
23081;DHT22;72373;50.562;8.498;2024-03-23T02:34:11;7.70;99.90
23081;DHT22;72373;50.562;8.498;2024-03-23T02:36:37;7.80;99.90
23081;DHT22;72373;50.562;8.498;2024-03-23T02:39:02;7.80;99.90
23081;DHT22;72373;50.562;8.498;2024-03-23T02:41:28;7.70;99.90
23081;DHT22;72373;50.562;8.498;2024-03-23T02:43:53;7.80;99.90
23081;DHT22;72373;50.562;8.498;2024-03-23T02:46:19;7.80;99.90
23081;DHT22;72373;50.562;8.498;2024-03-23T02:48:44;7.80;99.90
23081;DHT22;72373;50.562;8.498;2024-03-23T02:51:10;7.70;99.90
23081;DHT22;72373;50.562;8.498;2024-03-23T02:53:35;7.70;99.90
23081;DHT22;72373;50.562;8.498;2024-03-23T02:56:01;7.70;99.90
23081;DHT22;72373;50.562;8.498;2024-03-23T02:58:27;7.70;99.90
23081;DHT22;72373;50.562;8.498;2024-03-23T03:00:52;7.70;99.90
23081;DHT22;72373;50.562;8.498;2024-03-23T03:03:18;7.50;99.90
23081;DHT22;72373;50.562;8.498;2024-03-23T03:05:44;7.70;99.90
23081;DHT22;72373;50.562;8.498;2024-03-23T03:08:09;7.70;99.90
23081;DHT22;72373;50.562;8.498;2024-03-23T03:10:35;7.70;99.90
23081;DHT22;72373;50.562;8.498;2024-03-23T03:13:02;7.70;99.90
23081;DHT22;72373;50.562;8.498;2024-03-23T03:15:27;7.70;99.90
23081;DHT22;72373;50.562;8.498;2024-03-23T03:17:53;7.70;99.90
23081;DHT22;72373;50.562;8.498;2024-03-23T03:20:18;7.70;99.90
23081;DHT22;72373;50.562;8.498;2024-03-23T03:22:44;7.60;99.90
23081;DHT22;72373;50.562;8.498;2024-03-23T03:25:10;7.60;99.90
23081;DHT22;72373;50.562;8.498;2024-03-23T03:27:36;7.50;99.90
23081;DHT22;72373;50.562;8.498;2024-03-23T03:30:02;7.50;99.90
23081;DHT22;72373;50.562;8.498;2024-03-23T03:32:30;7.60;99.90
23081;DHT22;72373;50.562;8.498;2024-03-23T03:34:57;7.60;99.90
23081;DHT22;72373;50.562;8.498;2024-03-23T03:37:22;7.60;99.90
23081;DHT22;72373;50.562;8.498;2024-03-23T03:39:48;7.70;99.90
23081;DHT22;72373;50.562;8.498;2024-03-23T03:42:13;7.70;99.90
23081;DHT22;72373;50.562;8.498;2024-03-23T03:44:39;7.60;99.90
23081;DHT22;72373;50.562;8.498;2024-03-23T03:47:05;7.50;99.90
23081;DHT22;72373;50.562;8.498;2024-03-23T03:49:31;7.50;99.90
23081;DHT22;72373;50.562;8.498;2024-03-23T03:51:56;7.50;99.90
23081;DHT22;72373;50.562;8.498;2024-03-23T03:54:22;7.40;99.90
23081;DHT22;72373;50.562;8.498;2024-03-23T03:56:48;7.30;99.90
23081;DHT22;72373;50.562;8.498;2024-03-23T03:59:13;7.20;99.90
23081;DHT22;72373;50.562;8.498;2024-03-23T04:01:39;7.20;99.90
23081;DHT22;72373;50.562;8.498;2024-03-23T04:04:05;7.20;99.90
23081;DHT22;72373;50.562;8.498;2024-03-23T04:06:31;7.20;99.90
23081;DHT22;72373;50.562;8.498;2024-03-23T04:08:58;7.10;99.90
23081;DHT22;72373;50.562;8.498;2024-03-23T04:11:24;7.10;99.90
23081;DHT22;72373;50.562;8.498;2024-03-23T04:13:49;7.00;99.90
23081;DHT22;72373;50.562;8.498;2024-03-23T04:16:28;7.00;99.90
23081;DHT22;72373;50.562;8.498;2024-03-23T04:18:54;7.00;99.90
23081;DHT22;72373;50.562;8.498;2024-03-23T04:21:20;6.90;99.90
23081;DHT22;72373;50.562;8.498;2024-03-23T04:23:46;7.00;99.90
23081;DHT22;72373;50.562;8.498;2024-03-23T04:26:11;6.90;99.90
23081;DHT22;72373;50.562;8.498;2024-03-23T04:28:36;6.90;99.90
23081;DHT22;72373;50.562;8.498;2024-03-23T04:31:05;6.90;99.90
23081;DHT22;72373;50.562;8.498;2024-03-23T04:33:31;6.80;99.90
23081;DHT22;72373;50.562;8.498;2024-03-23T04:35:57;6.80;99.90
23081;DHT22;72373;50.562;8.498;2024-03-23T04:38:22;6.80;99.90
23081;DHT22;72373;50.562;8.498;2024-03-23T04:40:58;6.80;99.90
23081;DHT22;72373;50.562;8.498;2024-03-23T04:43:23;6.70;99.90
23081;DHT22;72373;50.562;8.498;2024-03-23T04:45:49;6.70;99.90
23081;DHT22;72373;50.562;8.498;2024-03-23T04:48:15;6.70;99.90
23081;DHT22;72373;50.562;8.498;2024-03-23T04:50:41;6.80;99.90
23081;DHT22;72373;50.562;8.498;2024-03-23T04:53:07;6.80;99.90
23081;DHT22;72373;50.562;8.498;2024-03-23T04:55:32;6.80;99.90
23081;DHT22;72373;50.562;8.498;2024-03-23T04:57:58;6.80;99.90
23081;DHT22;72373;50.562;8.498;2024-03-23T05:00:23;6.80;99.90
23081;DHT22;72373;50.562;8.498;2024-03-23T05:02:49;6.80;99.90
23081;DHT22;72373;50.562;8.498;2024-03-23T05:05:14;6.80;99.90
23081;DHT22;72373;50.562;8.498;2024-03-23T05:07:40;6.80;99.90
23081;DHT22;72373;50.562;8.498;2024-03-23T05:10:08;6.80;99.90
23081;DHT22;72373;50.562;8.498;2024-03-23T05:12:37;6.80;99.90
23081;DHT22;72373;50.562;8.498;2024-03-23T05:15:03;6.80;99.90
23081;DHT22;72373;50.562;8.498;2024-03-23T05:17:28;6.80;99.90
23081;DHT22;72373;50.562;8.498;2024-03-23T05:19:54;6.80;99.90
23081;DHT22;72373;50.562;8.498;2024-03-23T05:22:19;7.10;99.90
23081;DHT22;72373;50.562;8.498;2024-03-23T05:24:45;6.80;99.90
23081;DHT22;72373;50.562;8.498;2024-03-23T05:27:11;6.70;99.90
23081;DHT22;72373;50.562;8.498;2024-03-23T05:29:36;6.60;99.90
23081;DHT22;72373;50.562;8.498;2024-03-23T05:32:02;6.50;99.90
23081;DHT22;72373;50.562;8.498;2024-03-23T05:34:28;6.50;99.90
23081;DHT22;72373;50.562;8.498;2024-03-23T05:36:54;6.30;99.90
23081;DHT22;72373;50.562;8.498;2024-03-23T05:39:20;6.20;99.90
23081;DHT22;72373;50.562;8.498;2024-03-23T05:41:47;6.10;99.90
23081;DHT22;72373;50.562;8.498;2024-03-23T05:44:13;6.10;99.90
23081;DHT22;72373;50.562;8.498;2024-03-23T05:46:40;6.00;99.90
23081;DHT22;72373;50.562;8.498;2024-03-23T05:49:06;6.00;99.90
23081;DHT22;72373;50.562;8.498;2024-03-23T05:51:31;5.90;99.90
23081;DHT22;72373;50.562;8.498;2024-03-23T05:53:57;5.90;99.90
23081;DHT22;72373;50.562;8.498;2024-03-23T05:56:22;5.90;99.90
23081;DHT22;72373;50.562;8.498;2024-03-23T05:58:48;5.90;99.90
23081;DHT22;72373;50.562;8.498;2024-03-23T06:01:14;5.90;99.90
23081;DHT22;72373;50.562;8.498;2024-03-23T06:03:39;5.80;99.90
23081;DHT22;72373;50.562;8.498;2024-03-23T06:06:05;5.80;99.90
23081;DHT22;72373;50.562;8.498;2024-03-23T06:08:35;5.70;99.90
23081;DHT22;72373;50.562;8.498;2024-03-23T06:11:01;5.80;99.90
23081;DHT22;72373;50.562;8.498;2024-03-23T06:13:26;5.70;99.90
23081;DHT22;72373;50.562;8.498;2024-03-23T06:15:55;5.80;99.90
23081;DHT22;72373;50.562;8.498;2024-03-23T06:18:20;5.80;99.90
23081;DHT22;72373;50.562;8.498;2024-03-23T06:20:46;5.90;99.90
23081;DHT22;72373;50.562;8.498;2024-03-23T06:23:11;5.80;99.90
23081;DHT22;72373;50.562;8.498;2024-03-23T06:25:38;5.80;99.90
23081;DHT22;72373;50.562;8.498;2024-03-23T06:28:03;5.80;99.90
23081;DHT22;72373;50.562;8.498;2024-03-23T06:30:30;5.80;99.90
23081;DHT22;72373;50.562;8.498;2024-03-23T06:32:57;5.80;99.90
23081;DHT22;72373;50.562;8.498;2024-03-23T06:35:22;5.80;99.90
23081;DHT22;72373;50.562;8.498;2024-03-23T06:37:48;5.90;99.90
23081;DHT22;72373;50.562;8.498;2024-03-23T06:40:13;5.80;99.90
23081;DHT22;72373;50.562;8.498;2024-03-23T06:42:39;5.80;99.90
23081;DHT22;72373;50.562;8.498;2024-03-23T06:45:05;5.80;99.90
23081;DHT22;72373;50.562;8.498;2024-03-23T06:47:31;5.80;99.90
23081;DHT22;72373;50.562;8.498;2024-03-23T06:49:57;5.80;99.90
23081;DHT22;72373;50.562;8.498;2024-03-23T06:52:23;5.90;99.90
23081;DHT22;72373;50.562;8.498;2024-03-23T06:54:48;5.90;99.90
23081;DHT22;72373;50.562;8.498;2024-03-23T06:57:14;5.90;99.90
23081;DHT22;72373;50.562;8.498;2024-03-23T06:59:39;5.90;99.90
23081;DHT22;72373;50.562;8.498;2024-03-23T07:02:08;6.10;99.90
23081;DHT22;72373;50.562;8.498;2024-03-23T07:04:34;6.20;99.90
23081;DHT22;72373;50.562;8.498;2024-03-23T07:07:00;6.20;99.90
23081;DHT22;72373;50.562;8.498;2024-03-23T07:09:30;6.30;99.90
23081;DHT22;72373;50.562;8.498;2024-03-23T07:11:58;6.20;99.90
23081;DHT22;72373;50.562;8.498;2024-03-23T07:14:24;6.10;99.90
23081;DHT22;72373;50.562;8.498;2024-03-23T07:16:50;6.20;99.90
23081;DHT22;72373;50.562;8.498;2024-03-23T07:19:16;6.30;99.90
23081;DHT22;72373;50.562;8.498;2024-03-23T07:21:43;6.40;99.90
23081;DHT22;72373;50.562;8.498;2024-03-23T07:24:09;6.50;99.90
23081;DHT22;72373;50.562;8.498;2024-03-23T07:26:35;6.60;99.90
23081;DHT22;72373;50.562;8.498;2024-03-23T07:29:00;6.70;99.90
23081;DHT22;72373;50.562;8.498;2024-03-23T07:31:26;6.80;99.90
23081;DHT22;72373;50.562;8.498;2024-03-23T07:33:51;6.90;99.90
23081;DHT22;72373;50.562;8.498;2024-03-23T07:36:17;7.00;99.90
23081;DHT22;72373;50.562;8.498;2024-03-23T07:38:43;7.20;99.90
23081;DHT22;72373;50.562;8.498;2024-03-23T07:41:17;7.20;99.90
23081;DHT22;72373;50.562;8.498;2024-03-23T07:43:44;7.30;99.90
23081;DHT22;72373;50.562;8.498;2024-03-23T07:46:10;7.50;99.90
23081;DHT22;72373;50.562;8.498;2024-03-23T07:48:37;7.70;99.90
23081;DHT22;72373;50.562;8.498;2024-03-23T07:51:08;7.80;99.90
23081;DHT22;72373;50.562;8.498;2024-03-23T07:53:35;8.00;99.90
23081;DHT22;72373;50.562;8.498;2024-03-23T07:56:05;7.80;99.90
23081;DHT22;72373;50.562;8.498;2024-03-23T07:58:31;8.10;99.90
23081;DHT22;72373;50.562;8.498;2024-03-23T08:01:02;8.10;99.90
23081;DHT22;72373;50.562;8.498;2024-03-23T08:03:28;8.00;99.90
23081;DHT22;72373;50.562;8.498;2024-03-23T08:05:54;7.90;99.90
23081;DHT22;72373;50.562;8.498;2024-03-23T08:08:19;7.80;99.90
23081;DHT22;72373;50.562;8.498;2024-03-23T08:10:51;7.70;99.90
23081;DHT22;72373;50.562;8.498;2024-03-23T08:13:18;7.70;99.90
23081;DHT22;72373;50.562;8.498;2024-03-23T08:15:44;7.50;99.90
23081;DHT22;72373;50.562;8.498;2024-03-23T08:18:11;7.50;99.90
23081;DHT22;72373;50.562;8.498;2024-03-23T08:20:37;8.00;99.90
23081;DHT22;72373;50.562;8.498;2024-03-23T08:23:03;7.80;99.90
23081;DHT22;72373;50.562;8.498;2024-03-23T08:25:31;7.80;99.90
23081;DHT22;72373;50.562;8.498;2024-03-23T08:27:57;8.00;99.90
23081;DHT22;72373;50.562;8.498;2024-03-23T08:30:23;8.20;99.90
23081;DHT22;72373;50.562;8.498;2024-03-23T08:32:48;8.40;99.90
23081;DHT22;72373;50.562;8.498;2024-03-23T08:35:14;8.60;99.90
23081;DHT22;72373;50.562;8.498;2024-03-23T08:37:39;8.70;99.90
23081;DHT22;72373;50.562;8.498;2024-03-23T08:40:06;8.80;99.90
23081;DHT22;72373;50.562;8.498;2024-03-23T08:42:31;9.00;99.90
23081;DHT22;72373;50.562;8.498;2024-03-23T08:44:57;9.30;99.90
23081;DHT22;72373;50.562;8.498;2024-03-23T08:47:22;9.40;99.90
23081;DHT22;72373;50.562;8.498;2024-03-23T08:49:48;9.60;99.90
23081;DHT22;72373;50.562;8.498;2024-03-23T08:52:13;9.70;99.90
23081;DHT22;72373;50.562;8.498;2024-03-23T08:54:39;9.80;99.90
23081;DHT22;72373;50.562;8.498;2024-03-23T08:57:05;9.80;99.90
23081;DHT22;72373;50.562;8.498;2024-03-23T08:59:30;9.80;99.90
23081;DHT22;72373;50.562;8.498;2024-03-23T09:01:56;9.70;99.90
23081;DHT22;72373;50.562;8.498;2024-03-23T09:04:21;9.90;99.90
23081;DHT22;72373;50.562;8.498;2024-03-23T09:06:47;10.10;99.90
23081;DHT22;72373;50.562;8.498;2024-03-23T09:09:12;10.30;99.90
23081;DHT22;72373;50.562;8.498;2024-03-23T09:11:38;10.20;99.90
23081;DHT22;72373;50.562;8.498;2024-03-23T09:14:03;10.10;99.90
23081;DHT22;72373;50.562;8.498;2024-03-23T09:16:29;10.20;99.90
23081;DHT22;72373;50.562;8.498;2024-03-23T09:18:55;10.00;99.90
23081;DHT22;72373;50.562;8.498;2024-03-23T09:21:20;10.10;99.90
23081;DHT22;72373;50.562;8.498;2024-03-23T09:23:46;10.20;99.90
23081;DHT22;72373;50.562;8.498;2024-03-23T09:26:12;10.20;99.90
23081;DHT22;72373;50.562;8.498;2024-03-23T09:31:07;10.40;99.90
23081;DHT22;72373;50.562;8.498;2024-03-23T09:33:34;10.40;99.90
23081;DHT22;72373;50.562;8.498;2024-03-23T09:36:04;10.50;99.90
23081;DHT22;72373;50.562;8.498;2024-03-23T09:38:30;10.60;99.90
23081;DHT22;72373;50.562;8.498;2024-03-23T09:40:56;10.70;99.90
23081;DHT22;72373;50.562;8.498;2024-03-23T09:43:22;10.90;99.90
23081;DHT22;72373;50.562;8.498;2024-03-23T09:45:49;10.90;99.90
23081;DHT22;72373;50.562;8.498;2024-03-23T09:48:15;10.90;99.90
23081;DHT22;72373;50.562;8.498;2024-03-23T09:50:42;11.00;99.90
23081;DHT22;72373;50.562;8.498;2024-03-23T09:53:10;11.30;99.90
23081;DHT22;72373;50.562;8.498;2024-03-23T09:55:40;11.60;99.90
23081;DHT22;72373;50.562;8.498;2024-03-23T09:58:06;11.80;99.90
23081;DHT22;72373;50.562;8.498;2024-03-23T10:00:32;11.60;99.90
23081;DHT22;72373;50.562;8.498;2024-03-23T10:02:59;11.30;99.90
23081;DHT22;72373;50.562;8.498;2024-03-23T10:05:30;11.30;99.90
23081;DHT22;72373;50.562;8.498;2024-03-23T10:10:43;10.80;99.90
23081;DHT22;72373;50.562;8.498;2024-03-23T10:13:08;10.10;99.90
23081;DHT22;72373;50.562;8.498;2024-03-23T10:15:35;9.50;99.90
23081;DHT22;72373;50.562;8.498;2024-03-23T10:18:18;9.50;99.90
23081;DHT22;72373;50.562;8.498;2024-03-23T10:20:47;8.80;99.90
23081;DHT22;72373;50.562;8.498;2024-03-23T10:23:16;9.10;99.90
23081;DHT22;72373;50.562;8.498;2024-03-23T10:25:42;9.00;99.90
23081;DHT22;72373;50.562;8.498;2024-03-23T10:28:08;10.00;99.90
23081;DHT22;72373;50.562;8.498;2024-03-23T10:30:34;9.90;99.90
23081;DHT22;72373;50.562;8.498;2024-03-23T10:33:10;9.90;99.90
23081;DHT22;72373;50.562;8.498;2024-03-23T10:35:39;9.60;99.90
23081;DHT22;72373;50.562;8.498;2024-03-23T10:38:06;9.90;99.90
23081;DHT22;72373;50.562;8.498;2024-03-23T10:40:35;12.30;99.90
23081;DHT22;72373;50.562;8.498;2024-03-23T10:43:01;13.20;99.90
23081;DHT22;72373;50.562;8.498;2024-03-23T10:45:28;13.60;99.90
23081;DHT22;72373;50.562;8.498;2024-03-23T10:47:53;14.20;99.90
23081;DHT22;72373;50.562;8.498;2024-03-23T10:50:19;14.60;99.90
23081;DHT22;72373;50.562;8.498;2024-03-23T10:52:47;15.30;99.90
23081;DHT22;72373;50.562;8.498;2024-03-23T10:55:15;16.40;99.90
23081;DHT22;72373;50.562;8.498;2024-03-23T10:57:55;17.40;99.90
23081;DHT22;72373;50.562;8.498;2024-03-23T11:00:24;18.00;99.90
23081;DHT22;72373;50.562;8.498;2024-03-23T11:02:50;18.80;99.90
23081;DHT22;72373;50.562;8.498;2024-03-23T11:05:35;18.40;99.90
23081;DHT22;72373;50.562;8.498;2024-03-23T11:08:01;17.70;99.90
23081;DHT22;72373;50.562;8.498;2024-03-23T11:10:28;16.40;99.90
23081;DHT22;72373;50.562;8.498;2024-03-23T11:12:58;15.50;99.90
23081;DHT22;72373;50.562;8.498;2024-03-23T11:15:43;14.40;99.90
23081;DHT22;72373;50.562;8.498;2024-03-23T11:18:09;13.50;99.90
23081;DHT22;72373;50.562;8.498;2024-03-23T11:20:35;12.70;99.90
23081;DHT22;72373;50.562;8.498;2024-03-23T11:23:01;12.00;99.90
23081;DHT22;72373;50.562;8.498;2024-03-23T11:25:27;10.90;99.90
23081;DHT22;72373;50.562;8.498;2024-03-23T11:27:57;9.20;99.90
23081;DHT22;72373;50.562;8.498;2024-03-23T11:30:27;8.40;99.90
23081;DHT22;72373;50.562;8.498;2024-03-23T11:32:55;8.50;99.90
23081;DHT22;72373;50.562;8.498;2024-03-23T11:35:31;8.80;99.90
23081;DHT22;72373;50.562;8.498;2024-03-23T11:38:14;9.80;99.90
23081;DHT22;72373;50.562;8.498;2024-03-23T11:40:50;11.20;99.90
23081;DHT22;72373;50.562;8.498;2024-03-23T11:43:19;13.60;99.90
23081;DHT22;72373;50.562;8.498;2024-03-23T11:45:51;13.70;99.90
23081;DHT22;72373;50.562;8.498;2024-03-23T11:48:19;14.80;99.90
23081;DHT22;72373;50.562;8.498;2024-03-23T11:50:47;15.30;99.90
23081;DHT22;72373;50.562;8.498;2024-03-23T11:53:16;16.80;99.90
23081;DHT22;72373;50.562;8.498;2024-03-23T11:55:53;17.00;99.90
23081;DHT22;72373;50.562;8.498;2024-03-23T11:58:20;18.30;99.90
23081;DHT22;72373;50.562;8.498;2024-03-23T12:00:58;19.40;99.90
23081;DHT22;72373;50.562;8.498;2024-03-23T12:03:24;19.10;99.90
23081;DHT22;72373;50.562;8.498;2024-03-23T12:06:01;18.50;99.90
23081;DHT22;72373;50.562;8.498;2024-03-23T12:08:33;17.10;99.90
23081;DHT22;72373;50.562;8.498;2024-03-23T12:11:12;15.30;99.90
23081;DHT22;72373;50.562;8.498;2024-03-23T12:13:39;14.00;99.90
23081;DHT22;72373;50.562;8.498;2024-03-23T12:16:10;13.00;99.90
23081;DHT22;72373;50.562;8.498;2024-03-23T12:18:37;11.60;99.90
23081;DHT22;72373;50.562;8.498;2024-03-23T12:21:03;10.90;99.90
23081;DHT22;72373;50.562;8.498;2024-03-23T12:23:28;9.50;99.90
23081;DHT22;72373;50.562;8.498;2024-03-23T12:25:54;8.90;99.90
23081;DHT22;72373;50.562;8.498;2024-03-23T12:28:19;9.50;99.90
23081;DHT22;72373;50.562;8.498;2024-03-23T12:30:45;10.60;99.90
23081;DHT22;72373;50.562;8.498;2024-03-23T12:33:10;13.50;99.90
23081;DHT22;72373;50.562;8.498;2024-03-23T12:35:36;13.50;99.90
23081;DHT22;72373;50.562;8.498;2024-03-23T12:38:03;14.70;99.90
23081;DHT22;72373;50.562;8.498;2024-03-23T12:40:28;16.10;99.90
23081;DHT22;72373;50.562;8.498;2024-03-23T12:42:55;16.80;99.90
23081;DHT22;72373;50.562;8.498;2024-03-23T12:45:21;16.80;99.90
23081;DHT22;72373;50.562;8.498;2024-03-23T12:50:13;14.00;99.90
23081;DHT22;72373;50.562;8.498;2024-03-23T12:52:38;13.00;99.90
23081;DHT22;72373;50.562;8.498;2024-03-23T12:55:05;12.10;99.90
23081;DHT22;72373;50.562;8.498;2024-03-23T12:57:32;11.90;99.90
23081;DHT22;72373;50.562;8.498;2024-03-23T12:59:57;11.90;99.90
23081;DHT22;72373;50.562;8.498;2024-03-23T13:02:23;11.90;99.90
23081;DHT22;72373;50.562;8.498;2024-03-23T13:04:52;12.00;99.90
23081;DHT22;72373;50.562;8.498;2024-03-23T13:07:19;12.00;99.90
23081;DHT22;72373;50.562;8.498;2024-03-23T13:09:45;11.60;99.90
23081;DHT22;72373;50.562;8.498;2024-03-23T13:12:11;11.20;99.90
23081;DHT22;72373;50.562;8.498;2024-03-23T13:14:39;10.90;99.90
23081;DHT22;72373;50.562;8.498;2024-03-23T13:17:06;10.60;99.90
23081;DHT22;72373;50.562;8.498;2024-03-23T13:19:32;10.40;99.90
23081;DHT22;72373;50.562;8.498;2024-03-23T13:21:58;10.10;99.90
23081;DHT22;72373;50.562;8.498;2024-03-23T13:24:27;10.00;99.90
23081;DHT22;72373;50.562;8.498;2024-03-23T13:26:54;10.00;99.90
23081;DHT22;72373;50.562;8.498;2024-03-23T13:29:20;9.90;99.90
23081;DHT22;72373;50.562;8.498;2024-03-23T13:31:46;9.70;99.90
23081;DHT22;72373;50.562;8.498;2024-03-23T13:34:12;9.70;99.90
23081;DHT22;72373;50.562;8.498;2024-03-23T13:36:40;9.80;99.90
23081;DHT22;72373;50.562;8.498;2024-03-23T13:39:06;10.10;99.90
23081;DHT22;72373;50.562;8.498;2024-03-23T13:41:37;10.20;99.90
23081;DHT22;72373;50.562;8.498;2024-03-23T13:44:03;10.30;99.90
23081;DHT22;72373;50.562;8.498;2024-03-23T13:46:29;10.60;99.90
23081;DHT22;72373;50.562;8.498;2024-03-23T13:48:54;10.80;99.90
23081;DHT22;72373;50.562;8.498;2024-03-23T13:51:23;10.80;99.90
23081;DHT22;72373;50.562;8.498;2024-03-23T13:53:50;10.50;99.90
23081;DHT22;72373;50.562;8.498;2024-03-23T13:56:16;10.20;99.90
23081;DHT22;72373;50.562;8.498;2024-03-23T13:58:41;10.00;99.90
23081;DHT22;72373;50.562;8.498;2024-03-23T14:01:11;10.00;99.90
23081;DHT22;72373;50.562;8.498;2024-03-23T14:03:36;10.20;99.90
23081;DHT22;72373;50.562;8.498;2024-03-23T14:06:02;10.20;99.90
23081;DHT22;72373;50.562;8.498;2024-03-23T14:08:28;10.10;99.90
23081;DHT22;72373;50.562;8.498;2024-03-23T14:10:54;10.10;99.90
23081;DHT22;72373;50.562;8.498;2024-03-23T14:13:19;9.80;99.90
23081;DHT22;72373;50.562;8.498;2024-03-23T14:15:45;9.90;99.90
23081;DHT22;72373;50.562;8.498;2024-03-23T14:18:11;9.80;99.90
23081;DHT22;72373;50.562;8.498;2024-03-23T14:20:36;9.90;99.90
23081;DHT22;72373;50.562;8.498;2024-03-23T14:23:02;10.10;99.90
23081;DHT22;72373;50.562;8.498;2024-03-23T14:25:28;10.00;99.90
23081;DHT22;72373;50.562;8.498;2024-03-23T14:27:54;9.50;99.90
23081;DHT22;72373;50.562;8.498;2024-03-23T14:30:20;9.00;99.90
23081;DHT22;72373;50.562;8.498;2024-03-23T14:35:11;7.80;99.90
23081;DHT22;72373;50.562;8.498;2024-03-23T14:37:37;7.50;99.90
23081;DHT22;72373;50.562;8.498;2024-03-23T14:40:04;7.50;99.90
23081;DHT22;72373;50.562;8.498;2024-03-23T14:42:29;7.40;99.90
23081;DHT22;72373;50.562;8.498;2024-03-23T14:44:56;7.30;99.90
23081;DHT22;72373;50.562;8.498;2024-03-23T14:47:22;7.20;99.90
23081;DHT22;72373;50.562;8.498;2024-03-23T14:49:47;6.90;99.90
23081;DHT22;72373;50.562;8.498;2024-03-23T14:52:19;6.40;99.90
23081;DHT22;72373;50.562;8.498;2024-03-23T14:57:11;5.50;99.90
23081;DHT22;72373;50.562;8.498;2024-03-23T14:59:37;5.60;99.90
23081;DHT22;72373;50.562;8.498;2024-03-23T15:02:08;5.70;99.90
23081;DHT22;72373;50.562;8.498;2024-03-23T15:04:34;5.80;99.90
23081;DHT22;72373;50.562;8.498;2024-03-23T15:07:01;6.00;99.90
23081;DHT22;72373;50.562;8.498;2024-03-23T15:09:26;6.10;99.90
23081;DHT22;72373;50.562;8.498;2024-03-23T15:11:52;6.20;99.90
23081;DHT22;72373;50.562;8.498;2024-03-23T15:14:20;6.30;99.90
23081;DHT22;72373;50.562;8.498;2024-03-23T15:16:45;6.40;99.90
23081;DHT22;72373;50.562;8.498;2024-03-23T15:19:14;6.50;99.90
23081;DHT22;72373;50.562;8.498;2024-03-23T15:21:40;6.50;99.90
23081;DHT22;72373;50.562;8.498;2024-03-23T15:24:05;6.60;99.90
23081;DHT22;72373;50.562;8.498;2024-03-23T15:26:31;6.60;99.90
23081;DHT22;72373;50.562;8.498;2024-03-23T15:28:58;6.80;99.90
23081;DHT22;72373;50.562;8.498;2024-03-23T15:31:24;6.90;99.90
23081;DHT22;72373;50.562;8.498;2024-03-23T15:33:50;7.00;99.90
23081;DHT22;72373;50.562;8.498;2024-03-23T15:36:15;7.10;99.90
23081;DHT22;72373;50.562;8.498;2024-03-23T15:38:41;7.10;99.90
23081;DHT22;72373;50.562;8.498;2024-03-23T15:41:08;7.20;99.90
23081;DHT22;72373;50.562;8.498;2024-03-23T15:43:34;7.20;99.90
23081;DHT22;72373;50.562;8.498;2024-03-23T15:46:01;7.30;99.90
23081;DHT22;72373;50.562;8.498;2024-03-23T15:48:28;7.30;99.90
23081;DHT22;72373;50.562;8.498;2024-03-23T15:50:54;7.30;99.90
23081;DHT22;72373;50.562;8.498;2024-03-23T15:53:21;7.40;99.90
23081;DHT22;72373;50.562;8.498;2024-03-23T15:56:03;7.40;99.90
23081;DHT22;72373;50.562;8.498;2024-03-23T15:58:30;7.40;99.90
23081;DHT22;72373;50.562;8.498;2024-03-23T16:03:25;7.40;99.90
23081;DHT22;72373;50.562;8.498;2024-03-23T16:05:54;7.40;99.90
23081;DHT22;72373;50.562;8.498;2024-03-23T16:08:21;7.30;99.90
23081;DHT22;72373;50.562;8.498;2024-03-23T16:10:47;7.40;99.90
23081;DHT22;72373;50.562;8.498;2024-03-23T16:13:13;7.30;99.90
23081;DHT22;72373;50.562;8.498;2024-03-23T16:15:38;7.20;99.90
23081;DHT22;72373;50.562;8.498;2024-03-23T16:18:04;7.20;99.90
23081;DHT22;72373;50.562;8.498;2024-03-23T16:20:30;7.10;99.90
23081;DHT22;72373;50.562;8.498;2024-03-23T16:22:58;6.90;99.90
23081;DHT22;72373;50.562;8.498;2024-03-23T16:25:24;6.60;99.90
23081;DHT22;72373;50.562;8.498;2024-03-23T16:27:50;6.40;99.90
23081;DHT22;72373;50.562;8.498;2024-03-23T16:30:15;6.20;99.90
23081;DHT22;72373;50.562;8.498;2024-03-23T16:32:41;6.10;99.90
23081;DHT22;72373;50.562;8.498;2024-03-23T16:35:07;5.90;99.90
23081;DHT22;72373;50.562;8.498;2024-03-23T16:37:35;5.80;99.90
23081;DHT22;72373;50.562;8.498;2024-03-23T16:40:00;5.70;99.90
23081;DHT22;72373;50.562;8.498;2024-03-23T16:42:26;5.70;99.90
23081;DHT22;72373;50.562;8.498;2024-03-23T16:44:52;5.50;99.90
23081;DHT22;72373;50.562;8.498;2024-03-23T16:47:17;5.40;99.90